sensor_id;sensor_type;location;lat;lon;timestamp;P1;durP1;ratioP1;P2;durP2;ratioP2
35590;SDS011;30355;50.556;10.012;2024-02-21T00:02:13;3.90;;;1.77;;
35590;SDS011;30355;50.556;10.012;2024-02-21T00:12:16;5.70;;;2.63;;
35590;SDS011;30355;50.556;10.012;2024-02-21T00:22:18;5.05;;;1.83;;
35590;SDS011;30355;50.556;10.012;2024-02-21T00:32:20;7.75;;;2.50;;
35590;SDS011;30355;50.556;10.012;2024-02-21T00:42:22;3.58;;;1.85;;
35590;SDS011;30355;50.556;10.012;2024-02-21T00:52:24;3.08;;;1.75;;
35590;SDS011;30355;50.556;10.012;2024-02-21T01:02:26;5.40;;;1.95;;
35590;SDS011;30355;50.556;10.012;2024-02-21T01:12:28;5.53;;;2.10;;
35590;SDS011;30355;50.556;10.012;2024-02-21T01:22:31;2.50;;;1.48;;
35590;SDS011;30355;50.556;10.012;2024-02-21T01:32:33;5.22;;;1.60;;
35590;SDS011;30355;50.556;10.012;2024-02-21T01:42:38;9.52;;;2.83;;
35590;SDS011;30355;50.556;10.012;2024-02-21T01:52:42;5.90;;;1.77;;
35590;SDS011;30355;50.556;10.012;2024-02-21T02:02:48;4.40;;;1.85;;
35590;SDS011;30355;50.556;10.012;2024-02-21T02:12:50;3.85;;;1.50;;
35590;SDS011;30355;50.556;10.012;2024-02-21T02:22:52;5.63;;;2.00;;
35590;SDS011;30355;50.556;10.012;2024-02-21T02:32:54;6.22;;;2.40;;
35590;SDS011;30355;50.556;10.012;2024-02-21T02:42:56;5.38;;;1.77;;
35590;SDS011;30355;50.556;10.012;2024-02-21T02:52:58;6.63;;;2.15;;
35590;SDS011;30355;50.556;10.012;2024-02-21T03:03:00;7.15;;;2.40;;
35590;SDS011;30355;50.556;10.012;2024-02-21T03:13:05;4.57;;;2.03;;
35590;SDS011;30355;50.556;10.012;2024-02-21T03:23:07;4.35;;;1.85;;
35590;SDS011;30355;50.556;10.012;2024-02-21T03:33:09;4.50;;;2.25;;
35590;SDS011;30355;50.556;10.012;2024-02-21T03:43:11;6.97;;;2.38;;
35590;SDS011;30355;50.556;10.012;2024-02-21T03:53:13;7.90;;;2.85;;
35590;SDS011;30355;50.556;10.012;2024-02-21T04:03:15;6.78;;;3.03;;
35590;SDS011;30355;50.556;10.012;2024-02-21T04:13:17;6.75;;;2.67;;
35590;SDS011;30355;50.556;10.012;2024-02-21T04:23:19;5.47;;;2.85;;
35590;SDS011;30355;50.556;10.012;2024-02-21T04:33:21;6.63;;;3.17;;
35590;SDS011;30355;50.556;10.012;2024-02-21T04:43:24;6.88;;;2.97;;
35590;SDS011;30355;50.556;10.012;2024-02-21T04:53:26;4.85;;;3.05;;
35590;SDS011;30355;50.556;10.012;2024-02-21T05:03:28;5.95;;;3.00;;
35590;SDS011;30355;50.556;10.012;2024-02-21T05:13:30;4.68;;;2.65;;
35590;SDS011;30355;50.556;10.012;2024-02-21T05:23:32;8.43;;;3.22;;
35590;SDS011;30355;50.556;10.012;2024-02-21T05:33:34;5.82;;;2.50;;
35590;SDS011;30355;50.556;10.012;2024-02-21T05:43:37;4.15;;;2.30;;
35590;SDS011;30355;50.556;10.012;2024-02-21T05:53:39;9.90;;;2.85;;
35590;SDS011;30355;50.556;10.012;2024-02-21T06:03:42;12.30;;;3.58;;
35590;SDS011;30355;50.556;10.012;2024-02-21T06:13:44;5.00;;;2.08;;
35590;SDS011;30355;50.556;10.012;2024-02-21T06:23:46;5.82;;;2.25;;
35590;SDS011;30355;50.556;10.012;2024-02-21T06:33:48;5.90;;;2.42;;
35590;SDS011;30355;50.556;10.012;2024-02-21T06:43:50;6.60;;;2.13;;
35590;SDS011;30355;50.556;10.012;2024-02-21T06:53:53;5.03;;;2.20;;
35590;SDS011;30355;50.556;10.012;2024-02-21T07:03:56;6.45;;;2.70;;
35590;SDS011;30355;50.556;10.012;2024-02-21T07:13:58;6.53;;;2.53;;
35590;SDS011;30355;50.556;10.012;2024-02-21T07:24:00;3.67;;;2.05;;
35590;SDS011;30355;50.556;10.012;2024-02-21T07:34:02;9.05;;;3.25;;
35590;SDS011;30355;50.556;10.012;2024-02-21T07:44:04;5.53;;;2.90;;
35590;SDS011;30355;50.556;10.012;2024-02-21T07:54:06;5.30;;;2.42;;
35590;SDS011;30355;50.556;10.012;2024-02-21T08:04:11;5.28;;;2.65;;
35590;SDS011;30355;50.556;10.012;2024-02-21T08:14:14;5.75;;;2.15;;
35590;SDS011;30355;50.556;10.012;2024-02-21T08:24:21;6.55;;;3.17;;
35590;SDS011;30355;50.556;10.012;2024-02-21T08:34:24;6.03;;;2.15;;
35590;SDS011;30355;50.556;10.012;2024-02-21T08:44:27;6.63;;;2.83;;
35590;SDS011;30355;50.556;10.012;2024-02-21T08:54:30;6.38;;;3.30;;
35590;SDS011;30355;50.556;10.012;2024-02-21T09:04:34;7.35;;;3.20;;
35590;SDS011;30355;50.556;10.012;2024-02-21T09:14:36;4.68;;;2.75;;
35590;SDS011;30355;50.556;10.012;2024-02-21T09:24:41;4.22;;;2.72;;
35590;SDS011;30355;50.556;10.012;2024-02-21T09:34:44;7.65;;;3.28;;
35590;SDS011;30355;50.556;10.012;2024-02-21T09:44:46;7.53;;;2.95;;
35590;SDS011;30355;50.556;10.012;2024-02-21T09:54:50;3.92;;;1.83;;
35590;SDS011;30355;50.556;10.012;2024-02-21T10:04:53;2.95;;;1.70;;
35590;SDS011;30355;50.556;10.012;2024-02-21T10:15:00;5.20;;;2.30;;
35590;SDS011;30355;50.556;10.012;2024-02-21T10:25:06;6.18;;;2.22;;
35590;SDS011;30355;50.556;10.012;2024-02-21T10:35:12;3.88;;;1.90;;
35590;SDS011;30355;50.556;10.012;2024-02-21T10:45:15;5.22;;;1.77;;
35590;SDS011;30355;50.556;10.012;2024-02-21T10:55:23;2.95;;;1.65;;
35590;SDS011;30355;50.556;10.012;2024-02-21T11:05:41;4.00;;;1.55;;
35590;SDS011;30355;50.556;10.012;2024-02-21T11:15:46;5.78;;;1.90;;
35590;SDS011;30355;50.556;10.012;2024-02-21T11:25:49;3.47;;;1.42;;
35590;SDS011;30355;50.556;10.012;2024-02-21T11:35:51;2.17;;;0.98;;
35590;SDS011;30355;50.556;10.012;2024-02-21T11:46:01;2.35;;;1.10;;
35590;SDS011;30355;50.556;10.012;2024-02-21T11:56:04;1.95;;;0.80;;
35590;SDS011;30355;50.556;10.012;2024-02-21T12:06:07;1.50;;;0.98;;
35590;SDS011;30355;50.556;10.012;2024-02-21T12:16:10;4.05;;;1.20;;
35590;SDS011;30355;50.556;10.012;2024-02-21T12:26:12;2.63;;;0.93;;
35590;SDS011;30355;50.556;10.012;2024-02-21T12:36:14;2.70;;;1.20;;
35590;SDS011;30355;50.556;10.012;2024-02-21T12:46:16;2.55;;;0.80;;
35590;SDS011;30355;50.556;10.012;2024-02-21T12:56:18;3.13;;;0.88;;
35590;SDS011;30355;50.556;10.012;2024-02-21T13:06:20;4.47;;;0.80;;
35590;SDS011;30355;50.556;10.012;2024-02-21T13:16:22;1.50;;;0.70;;
35590;SDS011;30355;50.556;10.012;2024-02-21T13:26:24;1.70;;;0.90;;
35590;SDS011;30355;50.556;10.012;2024-02-21T13:36:27;1.52;;;0.77;;
35590;SDS011;30355;50.556;10.012;2024-02-21T13:46:29;2.30;;;0.50;;
35590;SDS011;30355;50.556;10.012;2024-02-21T13:56:32;4.25;;;0.73;;
35590;SDS011;30355;50.556;10.012;2024-02-21T14:06:34;2.08;;;0.50;;
35590;SDS011;30355;50.556;10.012;2024-02-21T14:16:36;1.40;;;0.40;;
35590;SDS011;30355;50.556;10.012;2024-02-21T14:26:39;2.72;;;0.70;;
35590;SDS011;30355;50.556;10.012;2024-02-21T14:36:42;1.95;;;1.35;;
35590;SDS011;30355;50.556;10.012;2024-02-21T14:46:44;4.93;;;1.85;;
35590;SDS011;30355;50.556;10.012;2024-02-21T14:56:47;2.83;;;1.10;;
35590;SDS011;30355;50.556;10.012;2024-02-21T15:06:49;2.88;;;0.90;;
35590;SDS011;30355;50.556;10.012;2024-02-21T15:16:51;1.77;;;0.60;;
35590;SDS011;30355;50.556;10.012;2024-02-21T15:26:53;0.90;;;0.50;;
35590;SDS011;30355;50.556;10.012;2024-02-21T15:36:55;3.10;;;1.10;;
35590;SDS011;30355;50.556;10.012;2024-02-21T15:46:58;1.92;;;0.90;;
35590;SDS011;30355;50.556;10.012;2024-02-21T15:57:00;3.78;;;1.50;;
35590;SDS011;30355;50.556;10.012;2024-02-21T16:07:07;2.70;;;0.50;;
35590;SDS011;30355;50.556;10.012;2024-02-21T16:17:09;1.85;;;0.52;;
35590;SDS011;30355;50.556;10.012;2024-02-21T16:27:11;1.05;;;0.40;;
35590;SDS011;30355;50.556;10.012;2024-02-21T16:37:13;2.15;;;0.47;;
35590;SDS011;30355;50.556;10.012;2024-02-21T16:47:15;1.58;;;0.50;;
35590;SDS011;30355;50.556;10.012;2024-02-21T16:57:18;1.48;;;0.40;;
35590;SDS011;30355;50.556;10.012;2024-02-21T17:07:20;1.02;;;0.55;;
35590;SDS011;30355;50.556;10.012;2024-02-21T17:17:23;3.88;;;1.10;;
35590;SDS011;30355;50.556;10.012;2024-02-21T17:27:25;5.07;;;1.13;;
35590;SDS011;30355;50.556;10.012;2024-02-21T17:37:27;2.10;;;1.00;;
35590;SDS011;30355;50.556;10.012;2024-02-21T17:47:29;2.38;;;1.45;;
35590;SDS011;30355;50.556;10.012;2024-02-21T17:57:32;6.75;;;1.92;;
35590;SDS011;30355;50.556;10.012;2024-02-21T18:07:34;4.72;;;1.52;;
35590;SDS011;30355;50.556;10.012;2024-02-21T18:17:37;2.65;;;1.30;;
35590;SDS011;30355;50.556;10.012;2024-02-21T18:27:42;5.40;;;1.40;;
35590;SDS011;30355;50.556;10.012;2024-02-21T18:37:44;3.03;;;1.10;;
35590;SDS011;30355;50.556;10.012;2024-02-21T18:47:47;3.38;;;1.77;;
35590;SDS011;30355;50.556;10.012;2024-02-21T18:57:49;4.15;;;2.22;;
35590;SDS011;30355;50.556;10.012;2024-02-21T19:07:51;2.88;;;2.00;;
35590;SDS011;30355;50.556;10.012;2024-02-21T19:17:53;2.90;;;1.67;;
35590;SDS011;30355;50.556;10.012;2024-02-21T19:27:55;4.10;;;2.15;;
35590;SDS011;30355;50.556;10.012;2024-02-21T19:37:58;6.28;;;2.05;;
35590;SDS011;30355;50.556;10.012;2024-02-21T19:48:07;4.90;;;1.33;;
35590;SDS011;30355;50.556;10.012;2024-02-21T19:58:09;3.42;;;1.63;;
35590;SDS011;30355;50.556;10.012;2024-02-21T20:08:11;2.88;;;1.33;;
35590;SDS011;30355;50.556;10.012;2024-02-21T20:18:13;1.20;;;0.60;;
35590;SDS011;30355;50.556;10.012;2024-02-21T20:28:16;2.38;;;1.23;;
35590;SDS011;30355;50.556;10.012;2024-02-21T20:38:19;3.10;;;0.77;;
35590;SDS011;30355;50.556;10.012;2024-02-21T20:48:21;3.10;;;1.00;;
35590;SDS011;30355;50.556;10.012;2024-02-21T20:58:23;2.38;;;0.90;;
35590;SDS011;30355;50.556;10.012;2024-02-21T21:08:25;5.20;;;1.40;;
35590;SDS011;30355;50.556;10.012;2024-02-21T21:18:28;4.40;;;1.80;;
35590;SDS011;30355;50.556;10.012;2024-02-21T21:28:33;6.07;;;1.80;;
35590;SDS011;30355;50.556;10.012;2024-02-21T21:38:35;4.25;;;1.52;;
35590;SDS011;30355;50.556;10.012;2024-02-21T21:48:37;2.05;;;0.55;;
35590;SDS011;30355;50.556;10.012;2024-02-21T21:58:40;2.88;;;0.55;;
35590;SDS011;30355;50.556;10.012;2024-02-21T22:08:42;1.75;;;0.63;;
35590;SDS011;30355;50.556;10.012;2024-02-21T22:18:49;2.40;;;0.60;;
35590;SDS011;30355;50.556;10.012;2024-02-21T22:28:51;1.30;;;0.57;;
35590;SDS011;30355;50.556;10.012;2024-02-21T22:38:56;1.60;;;0.73;;
35590;SDS011;30355;50.556;10.012;2024-02-21T22:48:58;1.48;;;0.50;;
35590;SDS011;30355;50.556;10.012;2024-02-21T22:59:00;1.17;;;0.55;;
35590;SDS011;30355;50.556;10.012;2024-02-21T23:09:03;0.88;;;0.50;;
35590;SDS011;30355;50.556;10.012;2024-02-21T23:19:05;2.20;;;0.57;;
35590;SDS011;30355;50.556;10.012;2024-02-21T23:29:07;0.50;;;0.30;;
35590;SDS011;30355;50.556;10.012;2024-02-21T23:39:10;0.57;;;0.47;;
35590;SDS011;30355;50.556;10.012;2024-02-21T23:49:12;0.73;;;0.20;;
35590;SDS011;30355;50.556;10.012;2024-02-21T23:59:14;0.60;;;0.25;;
